createdAt,value
2023-03-07T00:01:26.872Z,5.10
2023-03-07T00:03:53.931Z,5.10
2023-03-07T00:06:21.514Z,5.10
2023-03-07T00:08:52.847Z,5.10
2023-03-07T00:11:19.823Z,5.10
2023-03-07T00:13:46.720Z,5.00
2023-03-07T00:16:16.276Z,5.10
2023-03-07T00:18:43.931Z,5.10
2023-03-07T00:21:13.431Z,5.10
2023-03-07T00:23:42.729Z,5.00
2023-03-07T00:26:15.057Z,5.00
2023-03-07T00:28:41.929Z,5.00
2023-03-07T00:31:10.569Z,5.00
2023-03-07T00:33:37.746Z,5.00
2023-03-07T00:36:07.989Z,5.00
2023-03-07T00:38:35.173Z,5.00
2023-03-07T00:41:03.577Z,5.00
2023-03-07T00:43:31.054Z,5.00
2023-03-07T00:46:01.628Z,5.00
2023-03-07T00:48:29.150Z,5.00
2023-03-07T00:50:56.557Z,5.00
2023-03-07T00:53:23.535Z,5.00
2023-03-07T00:56:06.847Z,5.00
2023-03-07T00:58:35.976Z,5.00
2023-03-07T01:01:04.827Z,5.00
2023-03-07T01:03:32.328Z,5.00
2023-03-07T01:06:03.041Z,5.00
2023-03-07T01:08:30.407Z,5.00
2023-03-07T01:11:05.351Z,5.00
2023-03-07T01:13:33.669Z,4.90
2023-03-07T01:16:18.264Z,5.00
2023-03-07T01:18:52.039Z,4.90
2023-03-07T01:21:26.158Z,4.90
2023-03-07T01:23:52.989Z,4.90
2023-03-07T01:26:21.935Z,4.90
2023-03-07T01:28:50.855Z,4.90
2023-03-07T01:31:17.893Z,4.90
2023-03-07T01:33:47.266Z,4.90
2023-03-07T01:36:25.306Z,4.90
2023-03-07T01:38:55.026Z,4.90
2023-03-07T01:41:21.896Z,4.90
2023-03-07T01:43:48.758Z,4.90
2023-03-07T01:46:18.435Z,4.90
2023-03-07T01:48:52.486Z,4.90
2023-03-07T01:51:19.428Z,4.90
2023-03-07T01:53:47.175Z,4.90
2023-03-07T01:56:14.622Z,4.90
2023-03-07T01:58:41.671Z,4.90
2023-03-07T02:01:10.759Z,4.90
2023-03-07T02:03:40.055Z,4.90
2023-03-07T02:06:11.282Z,4.90
2023-03-07T02:08:38.894Z,4.90
2023-03-07T02:11:06.582Z,4.90
2023-03-07T02:13:33.518Z,4.90
2023-03-07T02:16:02.067Z,4.90
2023-03-07T02:18:32.800Z,4.90
2023-03-07T02:21:18.412Z,4.90
2023-03-07T02:24:08.533Z,4.90
2023-03-07T02:26:48.572Z,4.90
2023-03-07T02:29:15.656Z,4.90
2023-03-07T02:31:42.679Z,4.80
2023-03-07T02:34:23.246Z,4.90
2023-03-07T02:37:13.142Z,4.80
2023-03-07T02:39:43.009Z,4.90
2023-03-07T02:42:17.463Z,4.90
2023-03-07T02:44:46.209Z,4.80
2023-03-07T02:47:13.390Z,4.90
2023-03-07T02:49:40.177Z,4.90
2023-03-07T02:52:07.100Z,4.90
2023-03-07T02:54:33.918Z,4.80
2023-03-07T02:57:00.748Z,4.80
2023-03-07T02:59:27.540Z,4.80
2023-03-07T03:01:54.816Z,4.80
2023-03-07T03:04:21.604Z,4.80
2023-03-07T03:06:48.514Z,4.80
2023-03-07T03:09:15.373Z,4.90
2023-03-07T03:11:42.343Z,4.80
2023-03-07T03:14:09.205Z,4.80
2023-03-07T03:16:36.194Z,4.80
2023-03-07T03:19:03.473Z,4.90
2023-03-07T03:21:30.288Z,4.90
2023-03-07T03:23:57.062Z,4.90
2023-03-07T03:26:23.906Z,4.80
2023-03-07T03:28:54.319Z,4.80
2023-03-07T03:31:21.181Z,4.80
2023-03-07T03:33:49.430Z,4.90
2023-03-07T03:36:17.249Z,4.90
2023-03-07T03:38:44.223Z,4.90
2023-03-07T03:41:15.902Z,4.90
2023-03-07T03:43:42.719Z,4.90
2023-03-07T03:46:09.940Z,4.90
2023-03-07T03:48:36.735Z,4.90
2023-03-07T03:51:05.802Z,4.90
2023-03-07T03:53:34.252Z,4.90
2023-03-07T03:56:07.648Z,4.90
2023-03-07T03:58:35.561Z,4.90
2023-03-07T04:01:06.172Z,4.90
2023-03-07T04:03:33.778Z,4.90
2023-03-07T04:06:05.806Z,4.90
2023-03-07T04:08:33.639Z,4.90
2023-03-07T04:11:00.505Z,4.90
2023-03-07T04:13:27.709Z,4.90
2023-03-07T04:15:54.716Z,4.90
2023-03-07T04:18:22.736Z,4.90
2023-03-07T04:20:50.782Z,4.90
2023-03-07T04:23:18.555Z,4.90
2023-03-07T04:25:49.458Z,4.90
2023-03-07T04:28:19.503Z,4.90
2023-03-07T04:30:47.218Z,4.90
2023-03-07T04:33:14.025Z,4.90
2023-03-07T04:35:40.874Z,4.90
2023-03-07T04:38:08.068Z,4.90
2023-03-07T04:40:35.416Z,4.90
2023-03-07T04:43:02.321Z,4.90
2023-03-07T04:45:30.886Z,4.90
2023-03-07T04:47:57.733Z,4.90
2023-03-07T04:50:24.658Z,4.90
2023-03-07T04:52:51.498Z,4.90
2023-03-07T04:55:18.371Z,4.90
2023-03-07T04:57:45.283Z,4.90
2023-03-07T05:00:12.795Z,4.90
2023-03-07T05:02:39.654Z,4.90
2023-03-07T05:05:07.027Z,4.80
2023-03-07T05:07:33.847Z,4.80
2023-03-07T05:10:00.606Z,4.90
2023-03-07T05:12:27.449Z,4.80
2023-03-07T05:14:54.360Z,4.90
2023-03-07T05:17:21.123Z,4.90
2023-03-07T05:19:47.888Z,4.80
2023-03-07T05:22:14.742Z,4.90
2023-03-07T05:24:41.603Z,4.90
2023-03-07T05:27:08.388Z,4.80
2023-03-07T05:29:35.271Z,4.80
2023-03-07T05:32:02.690Z,4.80
2023-03-07T05:34:29.646Z,4.80
2023-03-07T05:36:58.340Z,4.80
2023-03-07T05:39:27.437Z,4.80
2023-03-07T05:41:55.077Z,4.80
2023-03-07T05:44:21.951Z,4.80
2023-03-07T05:46:48.759Z,4.80
2023-03-07T05:49:15.576Z,4.80
2023-03-07T05:51:42.373Z,4.80
2023-03-07T05:54:09.147Z,4.80
2023-03-07T05:56:36.037Z,4.80
2023-03-07T05:59:02.784Z,4.80
2023-03-07T06:01:29.606Z,4.90
2023-03-07T06:03:56.478Z,4.90
2023-03-07T06:06:23.255Z,4.80
2023-03-07T06:08:50.051Z,4.80
2023-03-07T06:11:16.812Z,4.90
2023-03-07T06:13:43.696Z,4.90
2023-03-07T06:16:10.510Z,4.80
2023-03-07T06:18:37.364Z,4.90
2023-03-07T06:21:05.968Z,4.90
2023-03-07T06:23:35.456Z,4.90
2023-03-07T06:26:03.165Z,4.90
2023-03-07T06:28:32.721Z,4.90
2023-03-07T06:30:59.993Z,4.90
2023-03-07T06:33:26.859Z,4.90
2023-03-07T06:35:53.747Z,4.90
2023-03-07T06:38:20.672Z,4.90
2023-03-07T06:40:56.229Z,4.90
2023-03-07T06:43:23.246Z,4.90
2023-03-07T06:45:50.115Z,4.90
2023-03-07T06:48:18.063Z,4.90
2023-03-07T06:50:45.732Z,4.90
2023-03-07T06:53:12.573Z,4.90
2023-03-07T06:55:39.348Z,4.90
2023-03-07T06:58:06.124Z,4.90
2023-03-07T07:00:32.914Z,4.90
2023-03-07T07:02:59.821Z,4.80
2023-03-07T07:05:26.923Z,4.80
2023-03-07T07:07:54.047Z,4.80
2023-03-07T07:10:20.814Z,4.90
2023-03-07T07:12:47.665Z,4.90
2023-03-07T07:15:14.575Z,4.90
2023-03-07T07:17:41.396Z,4.90
2023-03-07T07:20:11.320Z,4.90
2023-03-07T07:22:38.121Z,4.90
2023-03-07T07:25:05.360Z,4.80
2023-03-07T07:27:32.166Z,4.80
2023-03-07T07:29:58.951Z,4.80
2023-03-07T07:32:25.961Z,4.70
2023-03-07T07:34:52.920Z,4.60
2023-03-07T07:37:19.740Z,4.60
2023-03-07T07:39:46.557Z,4.60
2023-03-07T07:42:13.418Z,4.70
2023-03-07T07:44:40.281Z,4.70
2023-03-07T07:47:07.122Z,4.70
2023-03-07T07:49:33.994Z,4.70
2023-03-07T07:52:00.793Z,4.70
2023-03-07T07:54:28.196Z,4.70
2023-03-07T07:56:55.061Z,4.70
2023-03-07T07:59:21.857Z,4.70
2023-03-07T08:01:48.729Z,4.70
2023-03-07T08:04:15.523Z,4.70
2023-03-07T08:06:44.523Z,4.70
2023-03-07T08:09:11.482Z,4.70
2023-03-07T08:11:38.314Z,4.70
2023-03-07T08:14:05.175Z,4.70
2023-03-07T08:16:32.175Z,4.70
2023-03-07T08:18:59.051Z,4.70
2023-03-07T08:21:26.311Z,4.60
2023-03-07T08:23:54.447Z,4.60
2023-03-07T08:26:21.470Z,4.60
2023-03-07T08:28:48.459Z,4.60
2023-03-07T08:31:23.429Z,4.60
2023-03-07T08:33:51.271Z,4.50
2023-03-07T08:36:18.348Z,4.50
2023-03-07T08:38:50.888Z,4.50
2023-03-07T08:41:18.382Z,4.50
2023-03-07T08:43:45.296Z,4.40
2023-03-07T08:46:12.184Z,4.40
2023-03-07T08:48:39.065Z,4.40
2023-03-07T08:51:08.182Z,4.40
2023-03-07T08:53:35.251Z,4.40
2023-03-07T08:56:15.506Z,4.40
2023-03-07T08:58:42.434Z,4.40
2023-03-07T09:01:10.176Z,4.40
2023-03-07T09:03:36.981Z,4.40
2023-03-07T09:06:04.733Z,4.40
2023-03-07T09:08:32.230Z,4.40
2023-03-07T09:11:01.050Z,4.40
2023-03-07T09:13:27.867Z,4.40
2023-03-07T09:15:54.680Z,4.40
2023-03-07T09:18:23.029Z,4.40
2023-03-07T09:20:49.831Z,4.40
2023-03-07T09:23:16.754Z,4.40
2023-03-07T09:25:44.456Z,4.40
2023-03-07T09:28:11.319Z,4.40
2023-03-07T09:30:38.392Z,4.40
2023-03-07T09:33:05.278Z,4.40
2023-03-07T09:35:32.319Z,4.40
2023-03-07T09:37:59.282Z,4.40
2023-03-07T09:40:28.177Z,4.40
2023-03-07T09:43:04.617Z,4.40
2023-03-07T09:46:06.786Z,4.40
2023-03-07T09:48:39.862Z,4.40
2023-03-07T09:51:17.156Z,4.40
2023-03-07T09:53:52.007Z,4.40
2023-03-07T09:56:25.563Z,4.30
2023-03-07T09:59:02.551Z,4.30
2023-03-07T10:01:32.141Z,4.30
2023-03-07T10:04:05.096Z,4.30
2023-03-07T10:06:39.198Z,4.30
2023-03-07T10:09:12.147Z,4.30
2023-03-07T10:12:18.385Z,4.30
2023-03-07T10:15:09.398Z,4.30
2023-03-07T10:17:46.018Z,4.30
2023-03-07T10:20:17.915Z,4.30
2023-03-07T10:22:57.846Z,4.30
2023-03-07T10:25:28.772Z,4.30
2023-03-07T10:28:25.221Z,4.30
2023-03-07T10:30:54.725Z,4.30
2023-03-07T10:33:21.646Z,4.30
2023-03-07T10:35:58.830Z,4.40
2023-03-07T10:38:34.163Z,4.40
2023-03-07T10:41:06.552Z,4.40
2023-03-07T10:43:34.037Z,4.30
2023-03-07T10:46:23.950Z,4.40
2023-03-07T10:48:58.315Z,4.40
2023-03-07T10:51:31.694Z,4.40
2023-03-07T10:53:58.572Z,4.40
2023-03-07T10:56:25.496Z,4.40
2023-03-07T10:59:05.498Z,4.40
2023-03-07T11:01:33.822Z,4.30
2023-03-07T11:04:11.113Z,4.40
2023-03-07T11:06:40.373Z,4.40
2023-03-07T11:09:14.350Z,4.50
2023-03-07T11:11:48.402Z,4.50
2023-03-07T11:14:16.937Z,4.50
2023-03-07T11:16:59.989Z,4.60
2023-03-07T11:19:39.131Z,4.60
2023-03-07T11:22:23.407Z,4.60
2023-03-07T11:25:13.280Z,4.60
2023-03-07T11:27:49.505Z,4.70
2023-03-07T11:30:36.043Z,4.70
2023-03-07T11:33:22.122Z,4.70
2023-03-07T11:36:02.519Z,4.80
2023-03-07T11:38:55.803Z,4.80
2023-03-07T11:41:30.116Z,4.80
2023-03-07T11:44:16.827Z,4.90
2023-03-07T11:47:25.117Z,5.00
2023-03-07T11:50:12.061Z,5.00
2023-03-07T11:52:47.757Z,5.10
2023-03-07T11:55:27.940Z,5.10
2023-03-07T11:58:26.033Z,5.10
2023-03-07T12:00:58.691Z,5.10
2023-03-07T12:03:50.053Z,5.10
2023-03-07T12:06:35.132Z,5.20
2023-03-07T12:09:17.513Z,5.20
2023-03-07T12:11:53.610Z,5.20
2023-03-07T12:14:31.827Z,5.20
2023-03-07T12:17:10.897Z,5.30
2023-03-07T12:20:02.502Z,5.30
2023-03-07T12:22:39.803Z,5.30
2023-03-07T12:25:20.884Z,5.30
2023-03-07T12:27:47.600Z,5.30
2023-03-07T12:30:19.424Z,5.30
2023-03-07T12:32:46.688Z,5.40
2023-03-07T12:35:33.055Z,5.40
2023-03-07T12:38:12.262Z,5.40
2023-03-07T12:40:42.506Z,5.40
2023-03-07T12:43:37.792Z,5.40
2023-03-07T12:46:25.102Z,5.40
2023-03-07T12:49:04.563Z,5.50
2023-03-07T12:51:33.632Z,5.50
2023-03-07T12:54:39.819Z,5.50
2023-03-07T12:57:19.062Z,5.50
2023-03-07T12:59:46.139Z,5.50
2023-03-07T13:02:27.830Z,5.50
2023-03-07T13:04:54.850Z,5.50
2023-03-07T13:07:25.294Z,5.50
2023-03-07T13:09:54.948Z,5.50
2023-03-07T13:12:29.723Z,5.50
2023-03-07T13:15:02.055Z,5.60
2023-03-07T13:17:33.310Z,5.60
2023-03-07T13:20:15.694Z,5.50
2023-03-07T13:22:43.057Z,5.50
2023-03-07T13:25:27.198Z,5.50
2023-03-07T13:27:59.231Z,5.50
2023-03-07T13:30:32.619Z,5.50
2023-03-07T13:33:01.756Z,5.50
2023-03-07T13:35:28.718Z,5.50
2023-03-07T13:38:11.275Z,5.50
2023-03-07T13:40:42.255Z,6.40
2023-03-07T13:43:26.330Z,6.60
2023-03-07T13:46:01.038Z,6.50
2023-03-07T13:48:30.881Z,6.40
2023-03-07T13:51:00.533Z,6.30
2023-03-07T13:53:36.830Z,6.30
2023-03-07T13:56:28.997Z,6.20
2023-03-07T13:59:14.158Z,6.20
2023-03-07T14:01:55.516Z,6.20
2023-03-07T14:04:39.943Z,6.10
2023-03-07T14:07:31.926Z,6.10
2023-03-07T14:10:22.284Z,6.00
2023-03-07T14:13:20.784Z,6.00
2023-03-07T14:15:59.688Z,6.00
2023-03-07T14:18:26.468Z,5.90
2023-03-07T14:21:12.094Z,5.90
2023-03-07T14:23:50.585Z,5.90
2023-03-07T14:26:22.014Z,6.00
2023-03-07T14:28:51.371Z,5.90
2023-03-07T14:31:27.019Z,5.70
2023-03-07T14:33:54.323Z,5.70
2023-03-07T14:36:31.017Z,5.60
2023-03-07T14:39:02.287Z,5.50
2023-03-07T14:41:36.759Z,5.50
2023-03-07T14:44:41.045Z,5.50
2023-03-07T14:47:33.013Z,5.50
2023-03-07T14:50:02.788Z,5.40
2023-03-07T14:52:31.785Z,5.40
2023-03-07T14:55:04.561Z,5.30
2023-03-07T14:57:40.393Z,5.20
2023-03-07T15:00:12.958Z,5.20
2023-03-07T15:02:56.032Z,5.20
2023-03-07T15:05:29.863Z,5.20
2023-03-07T15:07:57.293Z,5.10
2023-03-07T15:10:44.584Z,5.10
2023-03-07T15:13:30.508Z,5.10
2023-03-07T15:16:04.758Z,5.10
2023-03-07T15:18:38.341Z,5.10
2023-03-07T15:21:06.047Z,5.20
2023-03-07T15:23:33.227Z,5.10
2023-03-07T15:26:10.887Z,5.10
2023-03-07T15:28:41.165Z,5.10
2023-03-07T15:31:11.458Z,5.00
2023-03-07T15:33:38.298Z,5.10
2023-03-07T15:36:13.976Z,5.10
2023-03-07T15:38:46.007Z,5.10
2023-03-07T15:41:29.844Z,5.10
2023-03-07T15:44:13.929Z,5.00
2023-03-07T15:46:47.710Z,4.90
2023-03-07T15:49:42.816Z,4.90
2023-03-07T15:52:27.397Z,4.90
2023-03-07T15:54:56.801Z,4.80
2023-03-07T15:57:37.652Z,4.80
2023-03-07T16:00:27.105Z,4.70
2023-03-07T16:02:54.024Z,4.70
2023-03-07T16:05:21.818Z,4.70
2023-03-07T16:07:52.308Z,4.70
2023-03-07T16:10:19.502Z,4.70
2023-03-07T16:12:47.191Z,4.80
2023-03-07T16:15:15.517Z,4.80
2023-03-07T16:17:42.753Z,4.70
2023-03-07T16:20:29.028Z,4.70
2023-03-07T16:22:56.224Z,4.70
2023-03-07T16:25:24.953Z,4.70
2023-03-07T16:27:53.605Z,4.70
2023-03-07T16:30:26.326Z,4.70
2023-03-07T16:32:53.811Z,4.70
2023-03-07T16:35:26.475Z,4.70
2023-03-07T16:37:54.208Z,4.60
2023-03-07T16:40:22.834Z,4.60
2023-03-07T16:42:50.648Z,4.60
2023-03-07T16:45:26.565Z,4.60
2023-03-07T16:47:55.473Z,4.50
2023-03-07T16:50:28.527Z,4.50
2023-03-07T16:52:56.079Z,4.50
2023-03-07T16:55:23.755Z,4.50
2023-03-07T16:57:54.451Z,4.50
2023-03-07T17:00:24.558Z,4.50
2023-03-07T17:02:52.821Z,4.50
2023-03-07T17:05:27.592Z,4.40
2023-03-07T17:07:55.612Z,4.40
2023-03-07T17:10:23.738Z,4.40
2023-03-07T17:12:51.000Z,4.40
2023-03-07T17:15:20.722Z,4.30
2023-03-07T17:17:47.736Z,4.30
2023-03-07T17:20:17.323Z,4.30
2023-03-07T17:22:44.224Z,4.30
2023-03-07T17:25:11.068Z,4.40
2023-03-07T17:27:42.547Z,4.30
2023-03-07T17:30:15.206Z,4.30
2023-03-07T17:32:42.151Z,4.30
2023-03-07T17:35:09.895Z,4.30
2023-03-07T17:37:37.067Z,4.30
2023-03-07T17:40:10.096Z,4.30
2023-03-07T17:42:38.245Z,4.20
2023-03-07T17:45:06.529Z,4.20
2023-03-07T17:47:33.819Z,4.20
2023-03-07T17:50:07.249Z,4.20
2023-03-07T17:52:34.580Z,4.20
2023-03-07T17:55:01.791Z,4.20
2023-03-07T17:57:29.485Z,4.20
2023-03-07T17:59:58.513Z,4.10
2023-03-07T18:02:25.968Z,4.10
2023-03-07T18:04:52.754Z,4.10
2023-03-07T18:07:19.875Z,4.10
2023-03-07T18:09:51.494Z,4.10
2023-03-07T18:12:22.990Z,4.00
2023-03-07T18:14:50.070Z,3.90
2023-03-07T18:17:17.110Z,4.00
2023-03-07T18:19:44.781Z,3.90
2023-03-07T18:22:11.602Z,3.90
2023-03-07T18:24:38.432Z,3.80
2023-03-07T18:27:08.661Z,3.80
2023-03-07T18:29:35.560Z,3.70
2023-03-07T18:32:02.532Z,3.60
2023-03-07T18:34:29.389Z,3.60
2023-03-07T18:36:56.403Z,3.60
2023-03-07T18:39:23.765Z,3.60
2023-03-07T18:41:50.730Z,3.50
2023-03-07T18:44:18.706Z,3.50
2023-03-07T18:46:45.937Z,3.50
2023-03-07T18:49:13.116Z,3.60
2023-03-07T18:51:40.332Z,3.40
2023-03-07T18:54:09.077Z,3.30
2023-03-07T18:56:35.964Z,3.30
2023-03-07T18:59:03.163Z,3.30
2023-03-07T19:01:32.270Z,3.20
2023-03-07T19:04:03.181Z,3.10
2023-03-07T19:06:36.280Z,3.10
2023-03-07T19:09:03.898Z,3.00
2023-03-07T19:11:31.736Z,3.00
2023-03-07T19:13:58.637Z,3.00
2023-03-07T19:16:28.193Z,3.00
2023-03-07T19:18:56.091Z,3.00
2023-03-07T19:21:24.741Z,2.90
2023-03-07T19:23:52.684Z,2.80
2023-03-07T19:26:20.571Z,2.90
2023-03-07T19:28:49.811Z,2.80
2023-03-07T19:31:21.793Z,2.80
2023-03-07T19:33:50.638Z,2.80
2023-03-07T19:36:23.273Z,2.80
2023-03-07T19:38:52.656Z,2.80
2023-03-07T19:41:21.819Z,2.80
2023-03-07T19:43:49.040Z,2.80
2023-03-07T19:46:17.794Z,2.80
2023-03-07T19:48:44.776Z,2.70
2023-03-07T19:51:21.302Z,2.70
2023-03-07T19:53:48.891Z,2.70
2023-03-07T19:56:22.079Z,2.70
2023-03-07T19:58:49.382Z,2.70
2023-03-07T20:01:18.867Z,2.70
2023-03-07T20:03:46.053Z,2.70
2023-03-07T20:06:19.738Z,2.60
2023-03-07T20:08:48.629Z,2.60
2023-03-07T20:11:18.183Z,2.50
2023-03-07T20:13:48.484Z,2.50
2023-03-07T20:16:16.962Z,2.50
2023-03-07T20:18:43.982Z,2.50
2023-03-07T20:21:13.225Z,2.50
2023-03-07T20:23:42.867Z,2.50
2023-03-07T20:26:12.306Z,2.50
2023-03-07T20:28:39.203Z,2.50
2023-03-07T20:31:10.505Z,2.50
2023-03-07T20:33:38.941Z,2.50
2023-03-07T20:36:08.652Z,2.50
2023-03-07T20:38:37.259Z,2.50
2023-03-07T20:41:15.028Z,2.50
2023-03-07T20:43:42.042Z,2.50
2023-03-07T20:46:13.013Z,2.50
2023-03-07T20:48:41.226Z,2.40
2023-03-07T20:51:11.372Z,2.50
2023-03-07T20:53:38.209Z,2.50
2023-03-07T20:56:06.178Z,2.40
2023-03-07T20:58:33.521Z,2.40
2023-03-07T21:01:00.979Z,2.40
2023-03-07T21:03:28.395Z,2.40
2023-03-07T21:06:01.206Z,2.40
2023-03-07T21:08:29.950Z,2.40
2023-03-07T21:11:14.111Z,2.40
2023-03-07T21:13:42.554Z,2.40
2023-03-07T21:16:20.772Z,2.40
2023-03-07T21:18:48.167Z,2.40
2023-03-07T21:21:20.019Z,2.40
2023-03-07T21:23:47.453Z,2.40
2023-03-07T21:26:16.880Z,2.40
2023-03-07T21:28:44.155Z,2.40
2023-03-07T21:31:13.843Z,2.40
2023-03-07T21:33:43.549Z,2.40
2023-03-07T21:36:13.827Z,2.40
2023-03-07T21:38:41.966Z,2.40
2023-03-07T21:41:09.093Z,2.30
2023-03-07T21:43:36.120Z,2.30
2023-03-07T21:46:08.606Z,2.30
2023-03-07T21:48:35.705Z,2.30
2023-03-07T21:51:06.067Z,2.30
2023-03-07T21:53:33.322Z,2.30
2023-03-07T21:56:09.488Z,2.30
2023-03-07T21:58:36.781Z,2.30
2023-03-07T22:01:14.547Z,2.30
2023-03-07T22:03:42.003Z,2.30
2023-03-07T22:06:11.327Z,2.30
2023-03-07T22:08:38.623Z,2.30
2023-03-07T22:11:07.135Z,2.30
2023-03-07T22:13:35.719Z,2.20
2023-03-07T22:16:04.798Z,2.20
2023-03-07T22:18:33.026Z,2.20
2023-03-07T22:21:11.117Z,2.20
2023-03-07T22:23:37.939Z,2.20
2023-03-07T22:26:06.978Z,2.20
2023-03-07T22:28:34.336Z,2.20
2023-03-07T22:31:02.942Z,2.20
2023-03-07T22:33:29.698Z,2.20
2023-03-07T22:36:02.277Z,2.20
2023-03-07T22:38:29.283Z,2.20
2023-03-07T22:41:04.613Z,2.20
2023-03-07T22:43:35.575Z,2.20
2023-03-07T22:46:02.752Z,2.20
2023-03-07T22:48:30.498Z,2.20
2023-03-07T22:50:57.945Z,2.20
2023-03-07T22:53:27.362Z,2.10
2023-03-07T22:55:54.236Z,2.20
2023-03-07T22:58:21.066Z,2.10
2023-03-07T23:00:47.894Z,2.10
2023-03-07T23:03:14.756Z,2.10
2023-03-07T23:05:41.611Z,2.10
2023-03-07T23:08:09.437Z,2.10
2023-03-07T23:10:36.266Z,2.10
2023-03-07T23:13:03.142Z,2.10
2023-03-07T23:15:30.007Z,2.10
2023-03-07T23:17:57.642Z,2.10
2023-03-07T23:20:26.616Z,2.10
2023-03-07T23:22:53.541Z,2.10
2023-03-07T23:25:20.935Z,2.10
2023-03-07T23:27:48.134Z,2.10
2023-03-07T23:30:17.494Z,2.10
2023-03-07T23:32:44.496Z,2.10
2023-03-07T23:35:12.570Z,2.00
2023-03-07T23:37:41.692Z,2.00
2023-03-07T23:40:10.750Z,2.00
2023-03-07T23:42:37.524Z,2.00
2023-03-07T23:45:04.762Z,2.00
2023-03-07T23:47:31.556Z,2.00
2023-03-07T23:49:58.366Z,2.00
2023-03-07T23:52:25.180Z,2.00
2023-03-07T23:54:52.006Z,2.00
2023-03-07T23:57:18.878Z,2.00
2023-03-07T23:59:47.788Z,2.00
